createdAt,value
2019-05-10T00:02:48.277Z,9.40
2019-05-10T00:07:10.744Z,9.40
2019-05-10T00:11:28.389Z,9.40
2019-05-10T00:15:34.391Z,9.40
2019-05-10T00:19:39.132Z,9.40
2019-05-10T00:23:43.688Z,9.50
2019-05-10T00:27:48.343Z,9.50
2019-05-10T00:31:52.982Z,9.50
2019-05-10T00:35:57.526Z,9.50
2019-05-10T00:40:02.211Z,9.50
2019-05-10T00:44:06.960Z,9.50
2019-05-10T00:48:11.494Z,9.60
2019-05-10T00:52:16.146Z,9.60
2019-05-10T00:56:20.676Z,9.60
2019-05-10T01:00:25.202Z,9.60
2019-05-10T01:04:29.826Z,9.50
2019-05-10T01:08:34.463Z,9.50
2019-05-10T01:12:39.078Z,9.60
2019-05-10T01:16:43.726Z,9.60
2019-05-10T01:20:48.361Z,9.60
2019-05-10T01:24:52.918Z,9.60
2019-05-10T01:28:57.580Z,9.60
2019-05-10T01:33:02.251Z,9.60
2019-05-10T01:37:06.821Z,9.60
2019-05-10T01:41:11.453Z,9.60
2019-05-10T01:45:16.130Z,9.50
2019-05-10T01:49:20.721Z,9.50
2019-05-10T01:53:25.323Z,9.60
2019-05-10T01:57:29.864Z,9.50
2019-05-10T02:01:34.405Z,9.70
2019-05-10T02:05:39.071Z,9.70
2019-05-10T02:09:43.860Z,9.70
2019-05-10T02:13:48.606Z,9.60
2019-05-10T02:17:53.148Z,9.60
2019-05-10T02:21:57.722Z,9.70
2019-05-10T02:26:09.384Z,9.70
2019-05-10T02:30:09.228Z,9.80
2019-05-10T02:34:13.800Z,9.70
2019-05-10T02:38:18.427Z,9.70
2019-05-10T02:42:22.962Z,9.70
2019-05-10T02:46:27.469Z,9.70
2019-05-10T02:50:32.087Z,9.70
2019-05-10T02:54:36.831Z,9.70
2019-05-10T02:58:43.098Z,9.60
2019-05-10T03:02:48.343Z,9.70
2019-05-10T03:06:55.944Z,9.70
2019-05-10T03:11:00.625Z,9.70
2019-05-10T03:15:05.783Z,9.70
2019-05-10T03:19:12.451Z,9.70
2019-05-10T03:23:18.012Z,9.70
2019-05-10T03:27:22.614Z,9.80
2019-05-10T03:31:27.281Z,9.70
2019-05-10T03:35:32.248Z,9.80
2019-05-10T03:39:37.053Z,9.80
2019-05-10T03:43:41.583Z,9.70
2019-05-10T03:47:46.235Z,9.70
2019-05-10T03:51:50.912Z,9.70
2019-05-10T03:55:55.444Z,9.70
2019-05-10T03:59:59.971Z,9.70
2019-05-10T04:04:08.896Z,9.70
2019-05-10T04:08:10.735Z,9.70
2019-05-10T04:12:15.364Z,9.60
2019-05-10T04:16:19.904Z,9.50
2019-05-10T04:20:24.463Z,9.50
2019-05-10T04:24:29.096Z,9.50
2019-05-10T04:28:33.627Z,9.50
2019-05-10T04:32:38.271Z,9.50
2019-05-10T04:36:42.915Z,9.60
2019-05-10T04:40:47.598Z,9.60
2019-05-10T04:44:53.370Z,9.50
2019-05-10T04:48:58.744Z,9.50
2019-05-10T04:53:03.386Z,9.60
2019-05-10T04:57:07.929Z,9.60
2019-05-10T05:01:12.680Z,9.60
2019-05-10T05:05:17.471Z,9.60
2019-05-10T05:09:21.978Z,9.60
2019-05-10T05:13:26.571Z,9.60
2019-05-10T05:17:31.147Z,9.60
2019-05-10T05:21:35.715Z,9.60
2019-05-10T05:25:41.808Z,9.60
2019-05-10T05:29:46.523Z,9.60
2019-05-10T05:33:51.108Z,9.60
2019-05-10T05:37:55.802Z,9.70
2019-05-10T05:42:00.391Z,9.80
2019-05-10T05:46:05.012Z,9.80
2019-05-10T05:50:10.126Z,9.90
2019-05-10T05:54:19.808Z,9.90
2019-05-10T05:58:26.835Z,9.90
2019-05-10T06:02:27.527Z,9.90
2019-05-10T06:06:32.148Z,10.00
2019-05-10T06:10:36.798Z,10.00
2019-05-10T06:14:43.342Z,10.00
2019-05-10T06:18:48.880Z,10.10
2019-05-10T06:23:05.614Z,10.30
2019-05-10T06:27:03.383Z,10.50
2019-05-10T06:31:06.634Z,10.50
2019-05-10T06:35:14.019Z,10.60
2019-05-10T06:39:17.707Z,10.60
2019-05-10T06:43:22.250Z,10.50
2019-05-10T06:47:26.866Z,10.50
2019-05-10T06:51:31.392Z,10.50
2019-05-10T06:55:35.942Z,10.50
2019-05-10T06:59:40.483Z,10.60
2019-05-10T07:03:45.031Z,10.80
2019-05-10T07:07:49.556Z,10.90
2019-05-10T07:11:54.099Z,10.80
2019-05-10T07:15:58.663Z,10.70
2019-05-10T07:20:04.961Z,10.70
2019-05-10T07:24:09.526Z,10.70
2019-05-10T07:28:16.008Z,10.70
2019-05-10T07:32:22.282Z,10.80
2019-05-10T07:36:29.579Z,10.90
2019-05-10T07:40:32.929Z,10.90
2019-05-10T07:44:41.379Z,10.90
2019-05-10T07:48:47.337Z,10.90
2019-05-10T07:52:50.196Z,10.90
2019-05-10T07:56:54.851Z,11.00
2019-05-10T08:00:59.530Z,11.00
2019-05-10T08:05:11.017Z,11.10
2019-05-10T08:09:11.734Z,11.10
2019-05-10T08:13:23.298Z,11.20
2019-05-10T08:17:22.691Z,11.30
2019-05-10T08:21:27.207Z,11.30
2019-05-10T08:25:36.385Z,11.40
2019-05-10T08:29:38.260Z,11.50
2019-05-10T08:33:44.210Z,11.70
2019-05-10T08:37:49.213Z,11.80
2019-05-10T08:42:04.115Z,12.40
2019-05-10T08:46:02.499Z,14.10
2019-05-10T08:50:20.561Z,15.40
2019-05-10T08:54:14.567Z,15.20
2019-05-10T08:58:21.657Z,14.50
2019-05-10T09:02:29.333Z,13.90
2019-05-10T09:06:32.751Z,13.30
2019-05-10T09:10:37.580Z,12.90
2019-05-10T09:14:42.683Z,12.80
2019-05-10T09:18:51.185Z,12.80
2019-05-10T09:22:53.817Z,12.60
2019-05-10T09:26:58.368Z,12.50
2019-05-10T09:31:17.339Z,12.40
2019-05-10T09:35:09.469Z,12.20
2019-05-10T09:39:17.769Z,12.20
2019-05-10T09:43:23.561Z,12.20
2019-05-10T09:47:26.504Z,12.20
2019-05-10T09:51:33.168Z,12.30
2019-05-10T09:55:37.336Z,12.30
2019-05-10T09:59:41.867Z,12.40
2019-05-10T10:03:47.672Z,12.50
2019-05-10T10:07:52.480Z,12.50
2019-05-10T10:12:01.058Z,12.40
2019-05-10T10:16:04.182Z,12.40
2019-05-10T10:20:09.724Z,12.40
2019-05-10T10:24:17.380Z,12.50
2019-05-10T10:28:22.574Z,12.60
2019-05-10T10:32:31.359Z,12.50
2019-05-10T10:36:33.079Z,12.60
2019-05-10T10:40:44.085Z,12.70
2019-05-10T10:44:44.068Z,12.80
2019-05-10T10:48:51.041Z,12.80
2019-05-10T10:52:54.921Z,12.90
2019-05-10T10:56:59.707Z,12.90
2019-05-10T11:01:10.853Z,12.80
2019-05-10T11:05:11.212Z,12.60
2019-05-10T11:09:15.751Z,12.60
2019-05-10T11:13:39.889Z,12.40
2019-05-10T11:17:26.853Z,12.40
2019-05-10T11:21:33.405Z,12.40
2019-05-10T11:25:42.760Z,12.40
2019-05-10T11:29:44.486Z,12.40
2019-05-10T11:33:53.813Z,12.40
2019-05-10T11:37:55.272Z,12.50
2019-05-10T11:42:05.196Z,12.60
2019-05-10T11:46:06.276Z,12.60
2019-05-10T11:50:27.773Z,12.40
2019-05-10T11:54:21.394Z,12.30
2019-05-10T11:58:25.484Z,12.20
2019-05-10T12:02:42.502Z,12.30
2019-05-10T12:06:41.140Z,12.30
2019-05-10T12:10:53.039Z,12.30
2019-05-10T12:14:48.985Z,12.40
2019-05-10T12:19:06.616Z,12.40
2019-05-10T12:23:03.397Z,12.50
2019-05-10T12:27:14.382Z,12.60
2019-05-10T12:31:16.050Z,12.70
2019-05-10T12:35:21.065Z,12.90
2019-05-10T12:39:25.220Z,12.90
2019-05-10T12:43:30.944Z,13.10
2019-05-10T12:47:35.799Z,13.10
2019-05-10T12:51:40.895Z,13.20
2019-05-10T12:55:46.731Z,13.40
2019-05-10T12:59:51.374Z,13.60
2019-05-10T13:03:56.107Z,14.10
2019-05-10T13:08:00.742Z,14.70
2019-05-10T13:12:06.318Z,15.60
2019-05-10T13:16:12.006Z,16.50
2019-05-10T13:20:17.352Z,16.80
2019-05-10T13:24:21.901Z,16.60
2019-05-10T13:28:26.424Z,16.90
2019-05-10T13:32:30.985Z,16.70
2019-05-10T13:36:37.242Z,16.80
2019-05-10T13:40:45.564Z,17.10
2019-05-10T13:44:48.212Z,17.00
2019-05-10T13:48:52.864Z,16.80
2019-05-10T13:52:57.451Z,15.90
2019-05-10T13:57:02.280Z,15.50
2019-05-10T14:01:12.861Z,15.20
2019-05-10T14:05:17.607Z,14.90
2019-05-10T14:09:21.099Z,14.90
2019-05-10T14:13:25.866Z,14.80
2019-05-10T14:17:30.595Z,14.70
2019-05-10T14:21:35.200Z,14.40
2019-05-10T14:25:39.806Z,13.60
2019-05-10T14:29:44.406Z,13.00
2019-05-10T14:34:14.173Z,12.50
2019-05-10T14:38:06.960Z,12.50
2019-05-10T14:42:02.043Z,12.80
2019-05-10T14:46:13.502Z,12.90
2019-05-10T14:50:19.256Z,12.90
2019-05-10T14:54:20.236Z,12.80
2019-05-10T14:58:24.892Z,13.40
2019-05-10T15:02:29.610Z,14.20
2019-05-10T15:06:36.806Z,14.40
2019-05-10T15:10:41.841Z,14.60
2019-05-10T15:14:46.571Z,14.60
2019-05-10T15:18:51.222Z,13.90
2019-05-10T15:22:56.017Z,13.70
2019-05-10T15:27:00.513Z,13.70
2019-05-10T15:31:05.223Z,13.50
2019-05-10T15:35:10.011Z,13.40
2019-05-10T15:39:14.648Z,13.30
2019-05-10T15:43:19.314Z,13.20
2019-05-10T15:47:23.958Z,12.90
2019-05-10T15:51:36.205Z,12.90
2019-05-10T15:55:35.060Z,13.00
2019-05-10T15:59:39.786Z,13.10
2019-05-10T16:03:44.355Z,13.30
2019-05-10T16:07:51.497Z,13.30
2019-05-10T16:11:56.224Z,13.40
2019-05-10T16:16:01.546Z,13.30
2019-05-10T16:20:06.394Z,13.00
2019-05-10T16:24:13.529Z,13.00
2019-05-10T16:28:20.657Z,12.90
2019-05-10T16:32:29.254Z,12.30
2019-05-10T16:36:30.193Z,11.40
2019-05-10T16:40:34.847Z,10.60
2019-05-10T16:44:39.379Z,10.20
2019-05-10T16:48:43.936Z,9.90
2019-05-10T16:52:48.632Z,9.90
2019-05-10T16:56:59.390Z,10.00
2019-05-10T17:00:59.716Z,10.10
2019-05-10T17:05:09.695Z,10.20
2019-05-10T17:09:18.338Z,10.00
2019-05-10T17:13:18.987Z,9.90
2019-05-10T17:17:23.617Z,9.90
2019-05-10T17:21:28.148Z,9.80
2019-05-10T17:25:35.524Z,10.00
2019-05-10T17:29:39.361Z,10.10
2019-05-10T17:33:44.334Z,10.00
2019-05-10T17:37:52.527Z,10.00
2019-05-10T17:41:57.710Z,10.00
2019-05-10T17:46:01.787Z,9.90
2019-05-10T17:50:08.404Z,10.00
2019-05-10T17:54:12.966Z,9.90
2019-05-10T17:58:17.673Z,9.90
2019-05-10T18:02:22.240Z,10.00
2019-05-10T18:06:27.021Z,9.80
2019-05-10T18:10:31.647Z,9.80
2019-05-10T18:14:36.265Z,9.70
2019-05-10T18:18:46.298Z,9.80
2019-05-10T18:22:47.178Z,9.70
2019-05-10T18:26:51.703Z,9.70
2019-05-10T18:30:56.268Z,9.70
2019-05-10T18:35:00.898Z,9.70
2019-05-10T18:39:09.249Z,9.60
2019-05-10T18:43:13.799Z,9.50
2019-05-10T18:47:18.346Z,9.40
2019-05-10T18:51:24.509Z,9.20
2019-05-10T18:55:29.160Z,9.10
2019-05-10T18:59:33.724Z,9.00
2019-05-10T19:03:38.409Z,9.00
2019-05-10T19:07:42.997Z,9.00
2019-05-10T19:11:47.711Z,8.90
2019-05-10T19:15:56.236Z,8.80
2019-05-10T19:19:58.677Z,8.60
2019-05-10T19:24:03.293Z,8.60
2019-05-10T19:28:07.965Z,8.60
2019-05-10T19:32:18.223Z,8.60
2019-05-10T19:36:18.931Z,8.50
2019-05-10T19:40:23.690Z,8.50
2019-05-10T19:44:28.446Z,8.50
2019-05-10T19:48:35.257Z,8.30
2019-05-10T19:52:39.294Z,8.30
2019-05-10T19:56:43.840Z,8.20
2019-05-10T20:00:48.515Z,8.10
2019-05-10T20:04:53.129Z,8.10
2019-05-10T20:08:57.677Z,8.00
2019-05-10T20:13:02.395Z,8.00
2019-05-10T20:17:07.048Z,8.10
2019-05-10T20:21:11.762Z,8.10
2019-05-10T20:25:16.494Z,8.10
2019-05-10T20:29:20.954Z,8.10
2019-05-10T20:33:25.609Z,8.00
2019-05-10T20:37:30.120Z,8.00
2019-05-10T20:41:34.684Z,8.00
2019-05-10T20:45:39.186Z,8.00
2019-05-10T20:49:43.840Z,8.00
2019-05-10T20:53:48.429Z,8.00
2019-05-10T20:57:53.094Z,8.10
2019-05-10T21:01:57.759Z,8.10
2019-05-10T21:06:02.587Z,8.20
2019-05-10T21:10:08.245Z,8.20
2019-05-10T21:14:12.778Z,8.20
2019-05-10T21:18:17.327Z,8.30
2019-05-10T21:22:21.928Z,8.20
2019-05-10T21:26:26.484Z,8.10
2019-05-10T21:30:31.043Z,8.20
2019-05-10T21:34:35.738Z,8.30
2019-05-10T21:38:41.776Z,8.20
2019-05-10T21:42:46.697Z,8.20
2019-05-10T21:46:53.652Z,8.20
2019-05-10T21:50:57.784Z,8.20
2019-05-10T21:55:02.487Z,8.20
2019-05-10T21:59:07.203Z,8.20
2019-05-10T22:03:11.725Z,8.20
2019-05-10T22:07:16.284Z,8.20
2019-05-10T22:11:20.881Z,8.10
2019-05-10T22:15:25.425Z,8.10
2019-05-10T22:19:30.077Z,8.00
2019-05-10T22:23:34.624Z,7.90
2019-05-10T22:27:39.196Z,7.90
2019-05-10T22:31:43.742Z,7.70
2019-05-10T22:35:48.374Z,7.90
2019-05-10T22:39:52.915Z,8.00
2019-05-10T22:43:57.519Z,7.90
2019-05-10T22:48:02.148Z,7.90
2019-05-10T22:52:06.711Z,7.90
2019-05-10T22:56:11.356Z,7.90
2019-05-10T23:00:16.783Z,7.80
2019-05-10T23:04:21.439Z,7.80
2019-05-10T23:08:26.008Z,7.90
2019-05-10T23:12:30.790Z,7.90
2019-05-10T23:16:35.493Z,7.90
2019-05-10T23:20:40.219Z,7.90
2019-05-10T23:24:44.913Z,7.90
2019-05-10T23:28:49.563Z,7.70
2019-05-10T23:32:54.272Z,7.70
2019-05-10T23:36:58.985Z,7.80
2019-05-10T23:41:03.639Z,7.90
2019-05-10T23:45:08.800Z,7.80
2019-05-10T23:49:13.341Z,7.70
2019-05-10T23:53:17.906Z,7.80
2019-05-10T23:57:22.519Z,8.00
